Pagina principale
METAR-TAF:

METAR-TAF

Aeroporti :

Grazzanise, Italia

latitudine: 41-03N, longitudine: 014-04E, altezza: 9 m

Osservazione

Il bollettino è stato emesso 45 minuti fa, alle 07:55 UTC
Temperature 12°C
Umidità 88%
Pressione 1012 hPa
Visibilità: 8000 m
Poco nuvoloso ad un'altezza di 3000 ft

METAR: LIRM 210755Z /////KT 8000 FEW030 12/10 Q1012

Ora: 09:40 (08:40 UTC)

Previsione

Il bollettino è stato emesso 40 minuti fa, alle 08:00 UTC
Previsione valida dal 21 alle 09 UTC al 21 alle 18 UTC
Vento 3 kt da nord-est
Visibilità: 8000 m
Poco nuvoloso ad un'altezza di 3000 ft

TAF: LIRM 210800Z 2109/2118 04003KT 8000 FEW030

Osservazioni e previsioni meteorologiche di più di 4000 aeroporti (messaggi METAR e TAF).

Le stazioni disponibili sono rappresentate dai dischi gialli e rossi sulla carta.

Puntare il mouse per vedere il nome della stazione.

Clicca sopra per visualizzare le osservazioni e previsioni meteorologiche.

Per cambiare la mappa : fare clic sui pulsanti verdi con una croce nera per ingrandire, il pulsante verde con un trattino per diminuire, o sulla freccia verde per le mappe adiacenti.


METAR-TAF: